sensor_id;sensor_type;location;lat;lon;timestamp;pressure;altitude;pressure_sealevel;temperature;humidity
55070;BME280;40967;52.070;8.596;2023-02-19T00:00:29;100461.66;;;8.91;100.00
55070;BME280;40967;52.070;8.596;2023-02-19T00:02:54;100458.94;;;8.91;100.00
55070;BME280;40967;52.070;8.596;2023-02-19T00:05:22;100461.66;;;8.91;100.00
55070;BME280;40967;52.070;8.596;2023-02-19T00:07:47;100459.25;;;8.95;100.00
55070;BME280;40967;52.070;8.596;2023-02-19T00:10:13;100460.31;;;8.94;100.00
55070;BME280;40967;52.070;8.596;2023-02-19T00:12:38;100446.50;;;8.90;100.00
55070;BME280;40967;52.070;8.596;2023-02-19T00:15:04;100445.69;;;8.90;100.00
55070;BME280;40967;52.070;8.596;2023-02-19T00:17:30;100438.09;;;8.87;100.00
55070;BME280;40967;52.070;8.596;2023-02-19T00:19:55;100450.78;;;8.86;100.00
55070;BME280;40967;52.070;8.596;2023-02-19T00:22:21;100440.78;;;8.87;100.00
55070;BME280;40967;52.070;8.596;2023-02-19T00:24:47;100428.34;;;8.86;100.00
55070;BME280;40967;52.070;8.596;2023-02-19T00:27:13;100424.25;;;8.83;100.00
55070;BME280;40967;52.070;8.596;2023-02-19T00:29:38;100421.59;;;8.88;100.00
55070;BME280;40967;52.070;8.596;2023-02-19T00:32:04;100423.47;;;8.88;100.00
55070;BME280;40967;52.070;8.596;2023-02-19T00:34:29;100416.44;;;8.87;100.00
55070;BME280;40967;52.070;8.596;2023-02-19T00:36:55;100420.25;;;8.86;100.00
55070;BME280;40967;52.070;8.596;2023-02-19T00:39:20;100422.69;;;8.87;100.00
55070;BME280;40967;52.070;8.596;2023-02-19T00:41:46;100422.88;;;8.81;100.00
55070;BME280;40967;52.070;8.596;2023-02-19T00:44:12;100421.84;;;8.87;100.00
55070;BME280;40967;52.070;8.596;2023-02-19T00:46:45;100418.59;;;8.85;100.00
55070;BME280;40967;52.070;8.596;2023-02-19T00:49:22;100410.75;;;8.83;100.00
55070;BME280;40967;52.070;8.596;2023-02-19T00:51:49;100419.44;;;8.90;100.00
55070;BME280;40967;52.070;8.596;2023-02-19T00:54:16;100417.56;;;8.91;100.00
55070;BME280;40967;52.070;8.596;2023-02-19T00:56:41;100421.31;;;8.90;100.00
55070;BME280;40967;52.070;8.596;2023-02-19T00:59:07;100414.03;;;8.90;100.00
55070;BME280;40967;52.070;8.596;2023-02-19T01:01:32;100409.72;;;8.89;100.00
55070;BME280;40967;52.070;8.596;2023-02-19T01:03:57;100416.97;;;8.84;100.00
55070;BME280;40967;52.070;8.596;2023-02-19T01:06:23;100409.66;;;8.84;100.00
55070;BME280;40967;52.070;8.596;2023-02-19T01:08:49;100414.28;;;8.89;100.00
55070;BME280;40967;52.070;8.596;2023-02-19T01:11:15;100412.41;;;8.89;100.00
55070;BME280;40967;52.070;8.596;2023-02-19T01:13:42;100401.00;;;8.82;100.00
55070;BME280;40967;52.070;8.596;2023-02-19T01:16:17;100414.28;;;8.89;100.00
55070;BME280;40967;52.070;8.596;2023-02-19T01:18:43;100409.16;;;8.87;100.00
55070;BME280;40967;52.070;8.596;2023-02-19T01:21:15;100408.63;;;8.90;100.00
55070;BME280;40967;52.070;8.596;2023-02-19T01:23:41;100415.13;;;8.89;100.00
55070;BME280;40967;52.070;8.596;2023-02-19T01:26:12;100404.00;;;8.86;100.00
55070;BME280;40967;52.070;8.596;2023-02-19T01:28:37;100406.72;;;8.86;100.00
55070;BME280;40967;52.070;8.596;2023-02-19T01:31:05;100406.44;;;8.87;100.00
55070;BME280;40967;52.070;8.596;2023-02-19T01:33:31;100406.44;;;8.87;100.00
55070;BME280;40967;52.070;8.596;2023-02-19T01:35:57;100411.03;;;8.87;100.00
55070;BME280;40967;52.070;8.596;2023-02-19T01:38:23;100402.91;;;8.87;100.00
55070;BME280;40967;52.070;8.596;2023-02-19T01:41:00;100399.38;;;8.86;100.00
55070;BME280;40967;52.070;8.596;2023-02-19T01:43:26;100391.81;;;8.83;100.00
55070;BME280;40967;52.070;8.596;2023-02-19T01:45:52;100406.19;;;8.89;100.00
55070;BME280;40967;52.070;8.596;2023-02-19T01:51:02;100404.00;;;8.86;100.00
55070;BME280;40967;52.070;8.596;2023-02-19T01:53:32;100404.31;;;8.89;100.00
55070;BME280;40967;52.070;8.596;2023-02-19T01:56:00;100404.81;;;8.86;100.00
55070;BME280;40967;52.070;8.596;2023-02-19T01:58:29;100399.97;;;8.93;100.00
55070;BME280;40967;52.070;8.596;2023-02-19T02:00:56;100401.91;;;8.98;100.00
55070;BME280;40967;52.070;8.596;2023-02-19T02:03:23;100388.66;;;8.96;100.00
55070;BME280;40967;52.070;8.596;2023-02-19T02:08:17;100399.47;;;8.96;100.00
55070;BME280;40967;52.070;8.596;2023-02-19T02:11:01;100401.09;;;8.97;100.00
55070;BME280;40967;52.070;8.596;2023-02-19T02:13:27;100383.44;;;8.90;100.00
55070;BME280;40967;52.070;8.596;2023-02-19T02:16:23;100405.44;;;9.03;100.00
55070;BME280;40967;52.070;8.596;2023-02-19T02:18:58;100402.72;;;9.03;100.00
55070;BME280;40967;52.070;8.596;2023-02-19T02:35:34;100400.28;;;9.02;100.00
55070;BME280;40967;52.070;8.596;2023-02-19T02:38:05;100397.84;;;9.00;100.00
55070;BME280;40967;52.070;8.596;2023-02-19T02:40:32;100375.59;;;8.88;100.00
55070;BME280;40967;52.070;8.596;2023-02-19T02:42:59;100387.59;;;9.02;100.00
55070;BME280;40967;52.070;8.596;2023-02-19T02:45:27;100393.28;;;9.06;100.00
55070;BME280;40967;52.070;8.596;2023-02-19T02:48:19;100394.63;;;9.03;100.00
55070;BME280;40967;52.070;8.596;2023-02-19T02:50:59;100402.50;;;9.05;100.00
55070;BME280;40967;52.070;8.596;2023-02-19T02:53:59;100404.38;;;9.04;100.00
55070;BME280;40967;52.070;8.596;2023-02-19T02:56:47;100395.16;;;9.00;100.00
55070;BME280;40967;52.070;8.596;2023-02-19T02:59:14;100406.00;;;9.05;100.00
55070;BME280;40967;52.070;8.596;2023-02-19T03:01:59;100399.53;;;9.06;100.00
55070;BME280;40967;52.070;8.596;2023-02-19T03:05:08;100411.69;;;9.04;100.00
55070;BME280;40967;52.070;8.596;2023-02-19T03:08:15;100391.09;;;8.98;100.00
55070;BME280;40967;52.070;8.596;2023-02-19T03:10:47;100390.56;;;9.01;100.00
55070;BME280;40967;52.070;8.596;2023-02-19T03:13:20;100408.16;;;9.03;100.00
55070;BME280;40967;52.070;8.596;2023-02-19T03:16:08;100401.38;;;9.01;100.00
55070;BME280;40967;52.070;8.596;2023-02-19T03:19:18;100402.72;;;9.03;100.00
55070;BME280;40967;52.070;8.596;2023-02-19T03:21:53;100410.06;;;9.03;100.00
55070;BME280;40967;52.070;8.596;2023-02-19T03:24:24;100406.25;;;9.04;100.00
55070;BME280;40967;52.070;8.596;2023-02-19T03:27:11;100402.50;;;9.05;100.00
55070;BME280;40967;52.070;8.596;2023-02-19T03:29:39;100408.97;;;9.04;100.00
55070;BME280;40967;52.070;8.596;2023-02-19T03:32:13;100414.94;;;9.06;100.00
55070;BME280;40967;52.070;8.596;2023-02-19T03:34:52;100415.75;;;9.06;100.00
55070;BME280;40967;52.070;8.596;2023-02-19T03:37:25;100410.91;;;9.08;100.00
55070;BME280;40967;52.070;8.596;2023-02-19T03:39:53;100416.56;;;9.07;100.00
55070;BME280;40967;52.070;8.596;2023-02-19T03:48:08;100420.63;;;9.04;100.00
55070;BME280;40967;52.070;8.596;2023-02-19T03:58:45;100418.44;;;9.01;100.00
55070;BME280;40967;52.070;8.596;2023-02-19T04:01:23;100432.75;;;9.02;100.00
55070;BME280;40967;52.070;8.596;2023-02-19T04:06:31;100447.13;;;9.02;100.00
55070;BME280;40967;52.070;8.596;2023-02-19T04:09:00;100444.38;;;8.97;100.00
55070;BME280;40967;52.070;8.596;2023-02-19T04:11:27;100442.97;;;8.90;100.00
55070;BME280;40967;52.070;8.596;2023-02-19T04:16:33;100447.81;;;8.88;100.00
55070;BME280;40967;52.070;8.596;2023-02-19T04:19:05;100455.91;;;8.83;100.00
55070;BME280;40967;52.070;8.596;2023-02-19T04:21:33;100469.47;;;8.88;100.00
55070;BME280;40967;52.070;8.596;2023-02-19T04:24:05;100468.88;;;8.81;100.00
55070;BME280;40967;52.070;8.596;2023-02-19T04:26:33;100474.28;;;8.81;100.00
55070;BME280;40967;52.070;8.596;2023-02-19T04:28:59;100473.50;;;8.80;100.00
55070;BME280;40967;52.070;8.596;2023-02-19T04:31:25;100470.75;;;8.75;100.00
55070;BME280;40967;52.070;8.596;2023-02-19T04:33:52;100471.00;;;8.74;100.00
55070;BME280;40967;52.070;8.596;2023-02-19T04:36:17;100479.47;;;8.82;100.00
55070;BME280;40967;52.070;8.596;2023-02-19T04:38:42;100474.06;;;8.82;100.00
55070;BME280;40967;52.070;8.596;2023-02-19T04:41:08;100474.59;;;8.84;100.00
55070;BME280;40967;52.070;8.596;2023-02-19T04:43:34;100484.31;;;8.80;100.00
55070;BME280;40967;52.070;8.596;2023-02-19T04:46:00;100486.16;;;8.75;100.00
55070;BME280;40967;52.070;8.596;2023-02-19T04:48:27;100494.56;;;8.78;100.00
55070;BME280;40967;52.070;8.596;2023-02-19T04:50:52;100496.41;;;8.73;100.00
55070;BME280;40967;52.070;8.596;2023-02-19T04:53:17;100487.94;;;8.64;100.00
55070;BME280;40967;52.070;8.596;2023-02-19T04:55:43;100504.81;;;8.76;100.00
55070;BME280;40967;52.070;8.596;2023-02-19T04:58:08;100515.38;;;8.78;100.00
55070;BME280;40967;52.070;8.596;2023-02-19T05:00:34;100509.94;;;8.73;100.00
55070;BME280;40967;52.070;8.596;2023-02-19T05:02:59;100516.44;;;8.72;100.00
55070;BME280;40967;52.070;8.596;2023-02-19T05:05:25;100521.00;;;8.71;100.00
55070;BME280;40967;52.070;8.596;2023-02-19T05:07:50;100519.69;;;8.74;100.00
55070;BME280;40967;52.070;8.596;2023-02-19T05:10:16;100519.94;;;8.72;100.00
55070;BME280;40967;52.070;8.596;2023-02-19T05:12:41;100524.84;;;8.75;100.00
55070;BME280;40967;52.070;8.596;2023-02-19T05:15:07;100514.47;;;8.67;100.00
55070;BME280;40967;52.070;8.596;2023-02-19T05:17:33;100531.53;;;8.68;100.00
55070;BME280;40967;52.070;8.596;2023-02-19T05:19:58;100523.38;;;8.63;100.00
55070;BME280;40967;52.070;8.596;2023-02-19T05:22:24;100529.91;;;8.67;100.00
55070;BME280;40967;52.070;8.596;2023-02-19T05:24:49;100530.66;;;8.62;100.00
55070;BME280;40967;52.070;8.596;2023-02-19T05:27:15;100544.78;;;8.69;100.00
55070;BME280;40967;52.070;8.596;2023-02-19T05:29:40;100546.94;;;8.67;100.00
55070;BME280;40967;52.070;8.596;2023-02-19T05:32:05;100552.88;;;8.64;100.00
55070;BME280;40967;52.070;8.596;2023-02-19T05:34:31;100546.63;;;8.64;100.00
55070;BME280;40967;52.070;8.596;2023-02-19T05:36:56;100551.78;;;8.65;100.00
55070;BME280;40967;52.070;8.596;2023-02-19T05:39:22;100541.44;;;8.57;100.00
55070;BME280;40967;52.070;8.596;2023-02-19T05:41:47;100545.00;;;8.63;100.00
55070;BME280;40967;52.070;8.596;2023-02-19T05:44:12;100544.72;;;8.59;100.00
55070;BME280;40967;52.070;8.596;2023-02-19T05:46:38;100557.44;;;8.64;100.00
55070;BME280;40967;52.070;8.596;2023-02-19T05:49:03;100570.19;;;8.63;100.00
55070;BME280;40967;52.070;8.596;2023-02-19T05:51:29;100564.47;;;8.60;100.00
55070;BME280;40967;52.070;8.596;2023-02-19T05:53:55;100568.16;;;8.54;100.00
55070;BME280;40967;52.070;8.596;2023-02-19T05:56:38;100583.03;;;8.51;100.00
55070;BME280;40967;52.070;8.596;2023-02-19T05:59:13;100585.16;;;8.49;100.00
55070;BME280;40967;52.070;8.596;2023-02-19T06:01:39;100586.69;;;8.40;100.00
55070;BME280;40967;52.070;8.596;2023-02-19T06:04:04;100583.34;;;8.33;100.00
55070;BME280;40967;52.070;8.596;2023-02-19T06:06:31;100603.97;;;8.39;100.00
55070;BME280;40967;52.070;8.596;2023-02-19T06:08:56;100617.47;;;8.39;100.00
55070;BME280;40967;52.070;8.596;2023-02-19T06:11:22;100643.53;;;8.45;100.00
55070;BME280;40967;52.070;8.596;2023-02-19T06:13:48;100631.09;;;8.44;100.00
55070;BME280;40967;52.070;8.596;2023-02-19T06:16:15;100653.13;;;8.36;100.00
55070;BME280;40967;52.070;8.596;2023-02-19T06:18:42;100655.78;;;8.31;100.00
55070;BME280;40967;52.070;8.596;2023-02-19T06:21:09;100673.81;;;8.26;100.00
55070;BME280;40967;52.070;8.596;2023-02-19T06:23:36;100659.81;;;8.12;100.00
55070;BME280;40967;52.070;8.596;2023-02-19T06:26:16;100678.22;;;8.15;100.00
55070;BME280;40967;52.070;8.596;2023-02-19T06:28:43;100676.53;;;8.09;100.00
55070;BME280;40967;52.070;8.596;2023-02-19T06:31:09;100684.25;;;8.00;100.00
55070;BME280;40967;52.070;8.596;2023-02-19T06:33:36;100689.81;;;7.94;100.00
55070;BME280;40967;52.070;8.596;2023-02-19T06:36:05;100695.81;;;7.79;100.00
55070;BME280;40967;52.070;8.596;2023-02-19T06:38:31;100712.22;;;7.73;100.00
55070;BME280;40967;52.070;8.596;2023-02-19T06:41:01;100709.31;;;7.63;100.00
55070;BME280;40967;52.070;8.596;2023-02-19T06:43:26;100715.78;;;7.62;100.00
55070;BME280;40967;52.070;8.596;2023-02-19T06:45:52;100730.59;;;7.59;100.00
55070;BME280;40967;52.070;8.596;2023-02-19T06:48:17;100734.78;;;7.50;100.00
55070;BME280;40967;52.070;8.596;2023-02-19T06:50:43;100740.72;;;7.52;100.00
55070;BME280;40967;52.070;8.596;2023-02-19T06:53:08;100740.09;;;7.45;100.00
55070;BME280;40967;52.070;8.596;2023-02-19T06:55:37;100758.66;;;7.42;100.00
55070;BME280;40967;52.070;8.596;2023-02-19T06:58:04;100762.91;;;7.38;100.00
55070;BME280;40967;52.070;8.596;2023-02-19T07:00:30;100767.38;;;7.32;100.00
55070;BME280;40967;52.070;8.596;2023-02-19T07:02:55;100772.94;;;7.26;100.00
55070;BME280;40967;52.070;8.596;2023-02-19T07:05:21;100782.66;;;7.27;100.00
55070;BME280;40967;52.070;8.596;2023-02-19T07:07:47;100782.47;;;7.17;100.00
55070;BME280;40967;52.070;8.596;2023-02-19T07:10:13;100801.09;;;7.18;100.00
55070;BME280;40967;52.070;8.596;2023-02-19T07:12:38;100791.06;;;7.02;100.00
55070;BME280;40967;52.070;8.596;2023-02-19T07:15:04;100807.59;;;7.06;100.00
55070;BME280;40967;52.070;8.596;2023-02-19T07:17:29;100826.97;;;7.03;100.00
55070;BME280;40967;52.070;8.596;2023-02-19T07:19:55;100837.19;;;7.01;100.00
55070;BME280;40967;52.070;8.596;2023-02-19T07:22:20;100842.81;;;6.99;100.00
55070;BME280;40967;52.070;8.596;2023-02-19T07:24:45;100849.63;;;7.02;100.00
55070;BME280;40967;52.070;8.596;2023-02-19T07:27:11;100855.81;;;7.02;100.00
55070;BME280;40967;52.070;8.596;2023-02-19T07:29:36;100861.22;;;7.02;100.00
55070;BME280;40967;52.070;8.596;2023-02-19T07:32:02;100861.94;;;6.98;100.00
55070;BME280;40967;52.070;8.596;2023-02-19T07:34:27;100860.75;;;6.93;100.00
55070;BME280;40967;52.070;8.596;2023-02-19T07:36:52;100869.19;;;6.97;100.00
55070;BME280;40967;52.070;8.596;2023-02-19T07:39:18;100866.75;;;6.96;100.00
55070;BME280;40967;52.070;8.596;2023-02-19T07:41:43;100872.88;;;6.91;100.00
55070;BME280;40967;52.070;8.596;2023-02-19T07:44:08;100869.59;;;6.77;100.00
55070;BME280;40967;52.070;8.596;2023-02-19T07:46:37;100897.81;;;6.86;100.00
55070;BME280;40967;52.070;8.596;2023-02-19T07:49:03;100911.91;;;6.88;100.00
55070;BME280;40967;52.070;8.596;2023-02-19T07:51:28;100920.00;;;6.88;100.00
55070;BME280;40967;52.070;8.596;2023-02-19T07:53:53;100922.09;;;6.86;100.00
55070;BME280;40967;52.070;8.596;2023-02-19T07:56:19;100926.34;;;6.82;100.00
55070;BME280;40967;52.070;8.596;2023-02-19T07:58:45;100925.50;;;6.82;100.00
55070;BME280;40967;52.070;8.596;2023-02-19T08:01:17;100925.75;;;6.80;100.00
55070;BME280;40967;52.070;8.596;2023-02-19T08:03:44;100918.13;;;6.77;100.00
55070;BME280;40967;52.070;8.596;2023-02-19T08:06:10;100929.28;;;6.81;100.00
55070;BME280;40967;52.070;8.596;2023-02-19T08:08:37;100930.66;;;6.83;100.00
55070;BME280;40967;52.070;8.596;2023-02-19T08:11:03;100929.63;;;6.84;100.00
55070;BME280;40967;52.070;8.596;2023-02-19T08:13:50;100931.25;;;6.85;100.00
55070;BME280;40967;52.070;8.596;2023-02-19T08:16:16;100936.66;;;6.85;100.00
55070;BME280;40967;52.070;8.596;2023-02-19T08:18:45;100937.84;;;6.89;100.00
55070;BME280;40967;52.070;8.596;2023-02-19T08:21:11;100941.34;;;6.90;100.00
55070;BME280;40967;52.070;8.596;2023-02-19T08:23:36;100933.59;;;6.93;100.00
55070;BME280;40967;52.070;8.596;2023-02-19T08:26:02;100940.53;;;6.89;100.00
55070;BME280;40967;52.070;8.596;2023-02-19T08:28:28;100935.00;;;6.73;100.00
55070;BME280;40967;52.070;8.596;2023-02-19T08:31:01;100958.72;;;6.82;100.00
55070;BME280;40967;52.070;8.596;2023-02-19T08:33:27;100958.94;;;6.81;100.00
55070;BME280;40967;52.070;8.596;2023-02-19T08:35:54;100975.69;;;6.83;100.00
55070;BME280;40967;52.070;8.596;2023-02-19T08:38:20;100978.75;;;6.86;100.00
55070;BME280;40967;52.070;8.596;2023-02-19T08:40:45;100986.38;;;6.89;100.00
55070;BME280;40967;52.070;8.596;2023-02-19T08:43:13;100968.19;;;6.85;100.00
55070;BME280;40967;52.070;8.596;2023-02-19T08:45:41;100978.84;;;6.91;100.00
55070;BME280;40967;52.070;8.596;2023-02-19T08:48:07;100989.19;;;6.95;100.00
55070;BME280;40967;52.070;8.596;2023-02-19T08:50:34;100988.97;;;6.96;100.00
55070;BME280;40967;52.070;8.596;2023-02-19T08:53:00;100997.88;;;6.97;100.00
55070;BME280;40967;52.070;8.596;2023-02-19T08:55:25;100982.63;;;6.90;100.00
55070;BME280;40967;52.070;8.596;2023-02-19T08:57:51;101014.50;;;6.93;100.00
55070;BME280;40967;52.070;8.596;2023-02-19T09:00:17;101004.19;;;6.90;100.00
55070;BME280;40967;52.070;8.596;2023-02-19T09:02:42;100995.63;;;6.93;100.00
55070;BME280;40967;52.070;8.596;2023-02-19T09:05:10;101010.53;;;6.96;100.00
55070;BME280;40967;52.070;8.596;2023-02-19T09:07:36;101011.59;;;6.95;100.00
55070;BME280;40967;52.070;8.596;2023-02-19T09:10:02;101011.94;;;6.87;100.00
55070;BME280;40967;52.070;8.596;2023-02-19T09:12:27;101013.00;;;6.86;100.00
55070;BME280;40967;52.070;8.596;2023-02-19T09:14:53;101024.03;;;6.84;100.00
55070;BME280;40967;52.070;8.596;2023-02-19T09:17:20;101022.59;;;6.82;100.00
55070;BME280;40967;52.070;8.596;2023-02-19T09:19:46;101009.25;;;6.75;100.00
55070;BME280;40967;52.070;8.596;2023-02-19T09:22:13;101054.50;;;6.85;100.00
55070;BME280;40967;52.070;8.596;2023-02-19T09:24:59;101056.84;;;6.81;100.00
55070;BME280;40967;52.070;8.596;2023-02-19T09:27:36;101069.28;;;6.82;100.00
55070;BME280;40967;52.070;8.596;2023-02-19T09:30:02;101068.22;;;6.83;100.00
55070;BME280;40967;52.070;8.596;2023-02-19T09:32:31;101049.34;;;6.72;100.00
55070;BME280;40967;52.070;8.596;2023-02-19T09:34:57;101064.34;;;6.79;100.00
55070;BME280;40967;52.070;8.596;2023-02-19T09:37:26;101079.25;;;6.82;100.00
55070;BME280;40967;52.070;8.596;2023-02-19T09:39:52;101084.28;;;6.78;100.00
55070;BME280;40967;52.070;8.596;2023-02-19T09:42:19;101077.25;;;6.77;100.00
55070;BME280;40967;52.070;8.596;2023-02-19T09:44:49;101096.25;;;6.82;100.00
55070;BME280;40967;52.070;8.596;2023-02-19T09:47:26;101094.00;;;6.79;100.00
55070;BME280;40967;52.070;8.596;2023-02-19T09:49:55;101099.56;;;6.84;100.00
55070;BME280;40967;52.070;8.596;2023-02-19T09:52:31;101115.03;;;6.89;100.00
55070;BME280;40967;52.070;8.596;2023-02-19T09:55:30;101116.44;;;6.91;100.00
55070;BME280;40967;52.070;8.596;2023-02-19T09:57:55;101127.03;;;7.05;100.00
55070;BME280;40967;52.070;8.596;2023-02-19T10:00:25;101122.22;;;7.07;100.00
55070;BME280;40967;52.070;8.596;2023-02-19T10:03:10;101135.72;;;7.18;100.00
55070;BME280;40967;52.070;8.596;2023-02-19T10:05:37;101138.09;;;7.26;100.00
55070;BME280;40967;52.070;8.596;2023-02-19T10:08:07;101145.84;;;7.34;100.00
55070;BME280;40967;52.070;8.596;2023-02-19T10:10:35;101152.78;;;7.42;100.00
55070;BME280;40967;52.070;8.596;2023-02-19T10:13:40;101159.00;;;7.42;100.00
55070;BME280;40967;52.070;8.596;2023-02-19T10:16:11;101166.50;;;7.29;100.00
55070;BME280;40967;52.070;8.596;2023-02-19T10:18:42;101154.97;;;7.22;100.00
55070;BME280;40967;52.070;8.596;2023-02-19T10:21:11;101173.56;;;7.41;100.00
55070;BME280;40967;52.070;8.596;2023-02-19T10:23:38;101180.75;;;7.59;100.00
55070;BME280;40967;52.070;8.596;2023-02-19T10:26:05;101178.75;;;7.66;100.00
55070;BME280;40967;52.070;8.596;2023-02-19T10:28:33;101179.56;;;7.78;100.00
55070;BME280;40967;52.070;8.596;2023-02-19T10:31:01;101182.03;;;7.91;100.00
55070;BME280;40967;52.070;8.596;2023-02-19T10:33:28;101178.25;;;8.03;100.00
55070;BME280;40967;52.070;8.596;2023-02-19T10:36:02;101195.41;;;8.09;100.00
55070;BME280;40967;52.070;8.596;2023-02-19T10:41:18;101210.13;;;7.90;100.00
55070;BME280;40967;52.070;8.596;2023-02-19T10:44:14;101201.75;;;8.03;100.00
55070;BME280;40967;52.070;8.596;2023-02-19T10:46:46;101212.00;;;8.24;100.00
55070;BME280;40967;52.070;8.596;2023-02-19T10:49:52;101203.41;;;8.39;100.00
55070;BME280;40967;52.070;8.596;2023-02-19T10:54:48;101201.19;;;8.64;100.00
55070;BME280;40967;52.070;8.596;2023-02-19T10:59:48;101209.88;;;8.77;100.00
55070;BME280;40967;52.070;8.596;2023-02-19T11:02:19;101210.91;;;8.76;100.00
55070;BME280;40967;52.070;8.596;2023-02-19T11:07:54;101209.47;;;8.85;99.87
55070;BME280;40967;52.070;8.596;2023-02-19T11:10:35;101217.59;;;8.85;99.83
55070;BME280;40967;52.070;8.596;2023-02-19T11:13:05;101228.78;;;9.05;99.40
55070;BME280;40967;52.070;8.596;2023-02-19T11:15:33;101229.53;;;9.29;99.27
55070;BME280;40967;52.070;8.596;2023-02-19T11:18:16;101227.75;;;9.51;98.28
55070;BME280;40967;52.070;8.596;2023-02-19T11:20:48;101225.34;;;9.71;97.28
55070;BME280;40967;52.070;8.596;2023-02-19T11:23:17;101227.06;;;9.94;97.50
55070;BME280;40967;52.070;8.596;2023-02-19T11:25:45;101215.66;;;10.25;97.07
55070;BME280;40967;52.070;8.596;2023-02-19T11:28:23;101217.19;;;10.59;96.05
55070;BME280;40967;52.070;8.596;2023-02-19T11:30:52;101213.06;;;10.57;94.22
55070;BME280;40967;52.070;8.596;2023-02-19T11:35:47;101213.88;;;10.57;94.06
55070;BME280;40967;52.070;8.596;2023-02-19T11:38:16;101224.38;;;10.49;91.64
55070;BME280;40967;52.070;8.596;2023-02-19T11:59:57;101204.22;;;11.14;86.89
55070;BME280;40967;52.070;8.596;2023-02-19T12:21:37;101213.09;;;11.05;82.80
55070;BME280;40967;52.070;8.596;2023-02-19T12:32:31;101217.19;;;11.07;82.21
55070;BME280;40967;52.070;8.596;2023-02-19T12:43:22;101245.22;;;11.66;80.92
55070;BME280;40967;52.070;8.596;2023-02-19T12:46:07;101250.47;;;11.73;79.57
55070;BME280;40967;52.070;8.596;2023-02-19T12:51:10;101257.75;;;11.67;80.83
55070;BME280;40967;52.070;8.596;2023-02-19T12:53:46;101253.09;;;11.68;81.27
55070;BME280;40967;52.070;8.596;2023-02-19T12:56:18;101258.25;;;11.64;80.63
55070;BME280;40967;52.070;8.596;2023-02-19T12:58:55;101269.34;;;11.63;81.77
55070;BME280;40967;52.070;8.596;2023-02-19T13:01:29;101274.69;;;11.53;81.41
55070;BME280;40967;52.070;8.596;2023-02-19T13:04:16;101272.19;;;11.46;80.67
55070;BME280;40967;52.070;8.596;2023-02-19T13:06:49;101268.56;;;11.35;80.23
55070;BME280;40967;52.070;8.596;2023-02-19T13:09:36;101267.88;;;11.23;80.41
55070;BME280;40967;52.070;8.596;2023-02-19T13:12:19;101263.34;;;11.07;80.18
55070;BME280;40967;52.070;8.596;2023-02-19T13:14:50;101266.47;;;10.94;80.28
55070;BME280;40967;52.070;8.596;2023-02-19T13:17:34;101273.16;;;10.87;80.21
55070;BME280;40967;52.070;8.596;2023-02-19T13:20:24;101273.47;;;10.69;79.72
55070;BME280;40967;52.070;8.596;2023-02-19T13:23:02;101278.56;;;10.65;79.78
55070;BME280;40967;52.070;8.596;2023-02-19T13:31:35;101259.81;;;10.64;80.97
55070;BME280;40967;52.070;8.596;2023-02-19T13:36:41;101272.03;;;10.61;80.97
55070;BME280;40967;52.070;8.596;2023-02-19T13:39:12;101284.75;;;10.61;80.99
55070;BME280;40967;52.070;8.596;2023-02-19T13:41:39;101266.06;;;10.43;80.34
55070;BME280;40967;52.070;8.596;2023-02-19T13:44:13;101272.31;;;10.43;80.70
55070;BME280;40967;52.070;8.596;2023-02-19T13:46:43;101271.16;;;10.39;80.14
55070;BME280;40967;52.070;8.596;2023-02-19T13:52:00;101259.44;;;10.00;81.05
55070;BME280;40967;52.070;8.596;2023-02-19T13:54:30;101252.88;;;9.80;80.93
55070;BME280;40967;52.070;8.596;2023-02-19T13:57:24;101257.88;;;9.71;81.33
55070;BME280;40967;52.070;8.596;2023-02-19T13:59:56;101259.34;;;9.79;81.64
55070;BME280;40967;52.070;8.596;2023-02-19T14:04:53;101276.16;;;10.09;82.13
55070;BME280;40967;52.070;8.596;2023-02-19T14:10:55;101277.53;;;10.28;83.15
55070;BME280;40967;52.070;8.596;2023-02-19T14:16:49;101302.06;;;10.38;81.73
55070;BME280;40967;52.070;8.596;2023-02-19T14:33:14;101312.69;;;9.90;80.28
55070;BME280;40967;52.070;8.596;2023-02-19T14:35:43;101317.34;;;9.78;80.18
55070;BME280;40967;52.070;8.596;2023-02-19T14:38:17;101317.41;;;9.66;80.19
55070;BME280;40967;52.070;8.596;2023-02-19T14:40:45;101313.94;;;9.54;80.37
55070;BME280;40967;52.070;8.596;2023-02-19T14:43:14;101326.44;;;9.55;80.84
55070;BME280;40967;52.070;8.596;2023-02-19T14:45:45;101326.19;;;9.57;80.54
55070;BME280;40967;52.070;8.596;2023-02-19T14:48:17;101331.50;;;9.52;80.53
55070;BME280;40967;52.070;8.596;2023-02-19T14:50:49;101331.41;;;9.47;80.71
55070;BME280;40967;52.070;8.596;2023-02-19T14:53:16;101315.06;;;9.42;81.42
55070;BME280;40967;52.070;8.596;2023-02-19T14:55:45;101303.50;;;9.46;81.93
55070;BME280;40967;52.070;8.596;2023-02-19T14:58:14;101305.00;;;9.54;83.08
55070;BME280;40967;52.070;8.596;2023-02-19T15:00:42;101294.38;;;9.52;83.75
55070;BME280;40967;52.070;8.596;2023-02-19T15:03:32;101289.47;;;9.49;83.52
55070;BME280;40967;52.070;8.596;2023-02-19T15:06:02;101295.88;;;9.43;82.94
55070;BME280;40967;52.070;8.596;2023-02-19T15:08:37;101287.00;;;9.19;81.82
55070;BME280;40967;52.070;8.596;2023-02-19T15:11:08;101288.84;;;9.02;81.96
55070;BME280;40967;52.070;8.596;2023-02-19T15:13:36;101285.59;;;8.89;82.04
55070;BME280;40967;52.070;8.596;2023-02-19T15:16:01;101280.19;;;8.89;82.90
55070;BME280;40967;52.070;8.596;2023-02-19T15:18:28;101261.25;;;8.89;83.70
55070;BME280;40967;52.070;8.596;2023-02-19T15:20:59;101252.97;;;8.95;83.44
55070;BME280;40967;52.070;8.596;2023-02-19T15:23:26;101256.03;;;8.99;83.48
55070;BME280;40967;52.070;8.596;2023-02-19T15:25:54;101257.44;;;9.01;83.83
55070;BME280;40967;52.070;8.596;2023-02-19T15:33:29;101262.88;;;9.18;85.65